Fort Worth Alliance Airport


Codes: KAFW/AFW
Name: Fort Worth Alliance Airport
City: Fort Worth
Country: United States
Elevation: 722 ft.
Website:
Wikipedia:

Photos at Fort Worth Alliance Airport


   Photos courtesy of SpottingLog. You can add your own sightings and photos by signing up for a free trial today.



N4708C, 14-Oct-2016
© Tony Boyer

N750JM, 14-Oct-2016
© Tony Boyer

168380, 14-Oct-2016
© Tony Boyer

N2394, 14-Oct-2016
© Tony Boyer

168928, 14-Oct-2016
© Tony Boyer

N90TX, 14-Oct-2016
© Tony Boyer

90-0719, 14-Oct-2016
© Tony Boyer

89-0010, 14-Oct-2016
© Tony Boyer

166790, 14-Oct-2016
© Tony Boyer

60-0061, 14-Oct-2016
© Tony Boyer

N533BB, 14-Oct-2016
© Tony Boyer

N9463L, 14-Oct-2016
© Tony Boyer


Weather at Fort Worth Alliance Airport


Time (UTC)DescriptionTempratureWindCloud coverageVisibilityPressureHumidity
15-Apr-2024 18:00Overcast Clouds22°C18 mph, S100%10000m1011hPa81%
15-Apr-2024 21:00Overcast Clouds24°C20 mph, S100%10000m1009hPa74%
16-Apr-2024 00:00Overcast Clouds23°C16 mph, SE100%10000m1008hPa83%
16-Apr-2024 03:00Moderate Rain21°C18 mph, SE100%10000m1009hPa92%
16-Apr-2024 06:00Light Rain21°C22 mph, S88%10000m1007hPa92%
16-Apr-2024 09:00Light Rain20°C22 mph, S85%10000m1006hPa91%
16-Apr-2024 12:00Overcast Clouds20°C20 mph, S91%10000m1007hPa90%
16-Apr-2024 15:00Few Clouds24°C16 mph, SW14%10000m1008hPa69%
16-Apr-2024 18:00Few Clouds27°C16 mph, SW16%10000m1008hPa25%
16-Apr-2024 21:00Overcast Clouds29°C13 mph, SW96%10000m1006hPa28%
17-Apr-2024 00:00Overcast Clouds25°C9 mph, S98%10000m1006hPa42%
17-Apr-2024 03:00Overcast Clouds22°C9 mph, S100%10000m1008hPa30%
17-Apr-2024 06:00Overcast Clouds22°C16 mph, S100%10000m1008hPa92%
17-Apr-2024 09:00Overcast Clouds20°C7 mph, NW99%10000m1009hPa96%
17-Apr-2024 12:00Overcast Clouds19°C7 mph, NW100%10000m1011hPa96%
17-Apr-2024 15:00Overcast Clouds20°C7 mph, N100%10000m1013hPa58%
17-Apr-2024 18:00Overcast Clouds25°C2 mph, SW100%10000m1012hPa35%
17-Apr-2024 21:00Overcast Clouds28°C2 mph, S100%10000m1010hPa30%
18-Apr-2024 00:00Overcast Clouds25°C4 mph, NW100%10000m1010hPa47%
18-Apr-2024 03:00Overcast Clouds21°C4 mph, NE100%10000m1012hPa45%
18-Apr-2024 06:00Overcast Clouds21°C4 mph, S100%10000m1012hPa73%
18-Apr-2024 09:00Overcast Clouds21°C9 mph, S86%10000m1010hPa91%
18-Apr-2024 12:00Broken Clouds19°C9 mph, S61%10000m1011hPa94%
18-Apr-2024 15:00Broken Clouds25°C9 mph, S65%10000m1011hPa75%
18-Apr-2024 18:00Broken Clouds31°C11 mph, SW52%10000m1010hPa53%
18-Apr-2024 21:00Scattered Clouds34°C16 mph, S40%10000m1007hPa39%
19-Apr-2024 00:00Heavy Intensity Rain19°C25 mph, S57%8171m1009hPa91%
19-Apr-2024 03:00Light Rain18°C2 mph, W92%10000m1013hPa89%
19-Apr-2024 06:00Overcast Clouds17°C18 mph, NW96%10000m1014hPa89%
19-Apr-2024 09:00Overcast Clouds14°C16 mph, N100%10000m1016hPa85%
19-Apr-2024 12:00Overcast Clouds11°C16 mph, N100%10000m1017hPa85%
19-Apr-2024 15:00Overcast Clouds14°C13 mph, N100%10000m1020hPa79%
19-Apr-2024 18:00Overcast Clouds18°C11 mph, NE97%10000m1019hPa73%
19-Apr-2024 21:00Overcast Clouds21°C11 mph, NE97%10000m1017hPa67%
20-Apr-2024 00:00Overcast Clouds20°C9 mph, NE93%10000m1016hPa71%
20-Apr-2024 03:00Overcast Clouds19°C7 mph, NE100%10000m1017hPa79%
20-Apr-2024 06:00Light Rain17°C7 mph, NE100%7246m1018hPa94%
20-Apr-2024 09:00Light Rain16°C11 mph, NE100%10000m1018hPa95%
20-Apr-2024 12:00Light Rain16°C11 mph, NE100%10000m1018hPa95%
20-Apr-2024 15:00Light Rain15°C13 mph, NE100%10000m1019hPa94%